Time;durP1;ratioP1;P1;durP2;ratioP2;P2;SDS_P1;SDS_P2;PMS_P1;PMS_P2;Temp;Humidity;BMP_temperature;BMP_pressure;BME280_temperature;BME280_humidity;BME280_pressure;Samples;Min_cycle;Max_cycle;Signal;HPM_P1;HPM_P2
2022/06/07 00:02:53;;;;;;;;;;;;;;;-145.66;100.00;59599.19;10543330;28;19920;-62
2022/06/07 00:07:56;;;;;;;;;;;;;;;-145.66;100.00;59599.19;10542247;28;20371;-62
2022/06/07 00:12:58;;;;;;;;;;;;;;;-145.66;100.00;59599.19;10541144;28;20421;-62
2022/06/07 00:18:01;;;;;;;;;;;;;;;-145.66;100.00;59599.19;10540870;28;19943;-62
2022/06/07 00:23:04;;;;;;;;;;;;;;;-145.66;100.00;59599.19;10542129;28;19934;-62
2022/06/07 00:28:06;;;;;;;;;;;;;;;-145.66;100.00;59599.19;10524077;28;19920;-62
2022/06/07 00:33:08;;;;;;;;;;;;;;;-145.66;100.00;59599.19;10540977;28;20326;-62
2022/06/07 00:38:11;;;;;;;;;;;;;;;-145.66;100.00;59599.19;10541197;28;19920;-62
2022/06/07 00:43:13;;;;;;;;;;;;;;;-145.66;100.00;59599.19;10541697;28;19920;-61
2022/06/07 00:48:15;;;;;;;;;;;;;;;-145.66;100.00;59599.19;10541305;28;19920;-62
2022/06/07 00:53:36;;;;;;;;;;;;;;;-145.66;100.00;59599.19;10522191;28;19928;-62
2022/06/07 00:58:39;;;;;;;;;;;;;;;-145.66;100.00;59599.19;10540809;28;19920;-61
2022/06/07 01:03:41;;;;;;;;;;;;;;;-145.66;100.00;59599.19;10541029;28;19920;-62
2022/06/07 01:14:05;;;;;;;;;;;;;;;-145.66;100.00;59599.19;10540358;28;19927;-61
2022/06/07 01:19:07;;;;;;;;;;;;;;;-145.66;100.00;59599.19;10540644;28;19946;-61
2022/06/07 01:24:09;;;;;;;;;;;;;;;-145.66;100.00;59599.19;10480792;28;20327;-61
2022/06/07 01:29:12;;;;;;;;;;;;;;;-145.66;100.00;59599.19;10498207;28;20362;-61
2022/06/07 01:34:14;;;;;;;;;;;;;;;-145.66;100.00;59599.19;10508274;28;19920;-61
2022/06/07 01:44:42;;;;;;;;;;;;;;;-145.66;100.00;59599.19;10539513;28;19920;-61
2022/06/07 01:49:45;;;;;;;;;;;;;;;-145.66;100.00;59599.19;10521059;28;20385;-61
2022/06/07 01:54:47;;;;;;;;;;;;;;;-145.66;100.00;59599.19;10538751;28;19926;-62
2022/06/07 01:59:49;;;;;;;;;;;;;;;-145.66;100.00;59599.19;10539238;28;19924;-62
2022/06/07 02:04:52;;;;;;;;;;;;;;;-145.66;100.00;59599.19;10538726;28;19920;-62
2022/06/07 02:09:54;;;;;;;;;;;;;;;-145.66;100.00;59599.19;10539582;28;19920;-62
2022/06/07 02:14:58;;;;;;;;;;;;;;;-145.66;100.00;59599.19;10538841;28;19920;-62
2022/06/07 02:20:01;;;;;;;;;;;;;;;-145.66;100.00;59599.19;10539122;28;19920;-62
2022/06/07 02:25:03;;;;;;;;;;;;;;;-145.66;100.00;59599.19;10539281;28;19920;-62
2022/06/07 02:30:07;;;;;;;;;;;;;;;-145.66;100.00;59599.19;10539341;28;19927;-61
2022/06/07 02:35:09;;;;;;;;;;;;;;;-145.66;100.00;59599.19;10539609;28;19924;-62
2022/06/07 02:40:11;;;;;;;;;;;;;;;-145.66;100.00;59599.19;10527741;28;20367;-61
2022/06/07 02:45:13;;;;;;;;;;;;;;;-145.66;100.00;59599.19;10527751;28;19920;-61
2022/06/07 02:50:15;;;;;;;;;;;;;;;-145.66;100.00;59599.19;10545314;28;19920;-62
2022/06/07 02:55:18;;;;;;;;;;;;;;;-145.66;100.00;59599.19;10545605;28;19920;-62
2022/06/07 03:00:20;;;;;;;;;;;;;;;-145.66;100.00;59599.19;10545062;28;19939;-61
2022/06/07 03:05:23;;;;;;;;;;;;;;;-145.66;100.00;59599.19;10527665;28;19927;-61
2022/06/07 03:10:25;;;;;;;;;;;;;;;-145.66;100.00;59599.19;10545054;28;20038;-62
2022/06/07 03:15:28;;;;;;;;;;;;;;;-145.66;100.00;59599.19;10526245;28;19920;-62
2022/06/07 03:20:30;;;;;;;;;;;;;;;-145.66;100.00;59599.19;10545002;28;19948;-62
2022/06/07 03:25:33;;;;;;;;;;;;;;;-145.66;100.00;59599.19;10526257;28;19920;-62
2022/06/07 03:30:35;;;;;;;;;;;;;;;-145.66;100.00;59599.19;10543692;28;20279;-62
2022/06/07 03:35:38;;;;;;;;;;;;;;;-145.66;100.00;59599.19;10525625;28;19927;-62
2022/06/07 03:40:46;;;;;;;;;;;;;;;-145.66;100.00;59599.19;10544160;28;19927;-62
2022/06/07 03:45:48;;;;;;;;;;;;;;;-145.66;100.00;59599.19;10526297;28;19931;-62
2022/06/07 03:50:52;;;;;;;;;;;;;;;-145.66;100.00;59599.19;10507762;28;19923;-62
2022/06/07 03:55:54;;;;;;;;;;;;;;;-145.66;100.00;59599.19;10542613;28;19924;-62
2022/06/07 04:00:57;;;;;;;;;;;;;;;-145.66;100.00;59599.19;10542649;28;19927;-62
2022/06/07 04:06:00;;;;;;;;;;;;;;;-145.66;100.00;59599.19;10525115;28;19926;-61
2022/06/07 04:16:06;;;;;;;;;;;;;;;-145.66;100.00;59599.19;10334180;28;19922;-68
2022/06/07 04:21:09;;;;;;;;;;;;;;;-145.66;100.00;59599.19;10336078;28;19944;-69
2022/06/07 04:26:13;;;;;;;;;;;;;;;-145.66;100.00;59599.19;10335244;28;19989;-69
2022/06/07 04:31:16;;;;;;;;;;;;;;;-145.66;100.00;59599.19;10334584;28;20295;-70
2022/06/07 04:36:20;;;;;;;;;;;;;;;-145.66;100.00;59599.19;10334022;28;19926;-70
2022/06/07 04:41:23;;;;;;;;;;;;;;;-145.66;100.00;59599.19;10335235;28;20428;-70
2022/06/07 04:46:25;;;;;;;;;;;;;;;-145.66;100.00;59599.19;10318550;28;19932;-70
2022/06/07 04:51:32;;;;;;;;;;;;;;;-145.66;100.00;59599.19;10317700;28;20020;-69
2022/06/07 04:56:35;;;;;;;;;;;;;;;-145.66;100.00;59599.19;10316894;28;19926;-69
2022/06/07 05:01:39;;;;;;;;;;;;;;;-145.66;100.00;59599.19;10334435;28;20285;-69
2022/06/07 05:06:42;;;;;;;;;;;;;;;-145.66;100.00;59599.19;10335279;28;19968;-69
2022/06/07 05:11:48;;;;;;;;;;;;;;;-145.66;100.00;59599.19;10336502;28;19925;-68
2022/06/07 05:16:51;;;;;;;;;;;;;;;-145.66;100.00;59599.19;10372994;28;20345;-68
2022/06/07 05:21:53;;;;;;;;;;;;;;;-145.66;100.00;59599.19;10374275;28;19925;-68
2022/06/07 05:26:59;;;;;;;;;;;;;;;-145.66;100.00;59599.19;10375324;28;19928;-68
2022/06/07 05:32:01;;;;;;;;;;;;;;;-145.66;100.00;59599.19;10335999;28;19947;-68
2022/06/07 05:37:03;;;;;;;;;;;;;;;-145.66;100.00;59599.19;10335630;28;19929;-68
2022/06/07 05:42:07;;;;;;;;;;;;;;;-145.66;100.00;59599.19;10373340;28;19928;-67
2022/06/07 05:47:09;;;;;;;;;;;;;;;-145.66;100.00;59599.19;10373364;28;19921;-68
2022/06/07 05:52:12;;;;;;;;;;;;;;;-145.66;100.00;59599.19;10334148;28;19921;-68
2022/06/07 05:57:14;;;;;;;;;;;;;;;-145.66;100.00;59599.19;10335266;28;19922;-68
2022/06/07 06:02:16;;;;;;;;;;;;;;;-145.66;100.00;59599.19;10327581;28;20399;-68
2022/06/07 06:07:18;;;;;;;;;;;;;;;-145.66;100.00;59599.19;10373902;28;19952;-68
2022/06/07 06:12:21;;;;;;;;;;;;;;;-145.66;100.00;59599.19;10378364;28;19928;-68
2022/06/07 06:17:23;;;;;;;;;;;;;;;-145.66;100.00;59599.19;10347892;28;19928;-69
2022/06/07 06:22:26;;;;;;;;;;;;;;;-145.66;100.00;59599.19;10341355;28;19929;-69
2022/06/07 06:27:30;;;;;;;;;;;;;;;-145.66;100.00;59599.19;10351417;28;19929;-69
2022/06/07 06:32:32;;;;;;;;;;;;;;;-145.66;100.00;59599.19;10377856;28;20011;-69
2022/06/07 06:37:34;;;;;;;;;;;;;;;-145.66;100.00;59599.19;10341923;28;19925;-69
2022/06/07 06:42:37;;;;;;;;;;;;;;;-145.66;100.00;59599.19;10340038;28;20294;-69
2022/06/07 06:47:39;;;;;;;;;;;;;;;-145.66;100.00;59599.19;10364432;28;19921;-71
2022/06/07 06:52:41;;;;;;;;;;;;;;;-145.66;100.00;59599.19;10380069;28;20253;-69
2022/06/07 06:57:44;;;;;;;;;;;;;;;-145.66;100.00;59599.19;10378667;28;19925;-69
2022/06/07 07:02:47;;;;;;;;;;;;;;;-145.66;100.00;59599.19;10380404;28;19921;-69
2022/06/07 07:07:49;;;;;;;;;;;;;;;-145.66;100.00;59599.19;10378370;28;19929;-69
2022/06/07 07:12:51;;;;;;;;;;;;;;;-145.66;100.00;59599.19;10375806;28;19921;-69
2022/06/07 07:17:59;;;;;;;;;;;;;;;-145.66;100.00;59599.19;10376976;28;20368;-69
2022/06/07 07:23:01;;;;;;;;;;;;;;;-145.66;100.00;59599.19;10378849;28;19928;-69
2022/06/07 07:28:03;;;;;;;;;;;;;;;-145.66;100.00;59599.19;10377336;28;19921;-70
2022/06/07 07:33:06;;;;;;;;;;;;;;;-145.66;100.00;59599.19;10337698;28;20379;-69
2022/06/07 07:38:08;;;;;;;;;;;;;;;-145.66;100.00;59599.19;10337771;28;20258;-69
2022/06/07 07:43:10;;;;;;;;;;;;;;;-145.66;100.00;59599.19;10362206;28;20317;-70
2022/06/07 07:48:12;;;;;;;;;;;;;;;-145.66;100.00;59599.19;10359030;28;20388;-69
2022/06/07 07:53:15;;;;;;;;;;;;;;;-145.66;100.00;59599.19;10360968;28;19932;-69
2022/06/07 07:58:18;;;;;;;;;;;;;;;-145.66;100.00;59599.19;10378359;28;19928;-70
2022/06/07 08:03:20;;;;;;;;;;;;;;;-145.66;100.00;59599.19;10378144;28;19922;-69
2022/06/07 08:08:28;;;;;;;;;;;;;;;-145.66;100.00;59599.19;10377963;28;19925;-69
2022/06/07 08:13:31;;;;;;;;;;;;;;;-145.66;100.00;59599.19;10369219;28;19921;-69
2022/06/07 08:18:33;;;;;;;;;;;;;;;-145.66;100.00;59599.19;10375725;28;20262;-69
2022/06/07 08:23:36;;;;;;;;;;;;;;;-145.66;100.00;59599.19;10377049;28;19922;-69
2022/06/07 08:28:40;;;;;;;;;;;;;;;-145.66;100.00;59599.19;10359178;28;20016;-69
2022/06/07 08:39:04;;;;;;;;;;;;;;;-145.66;100.00;59599.19;10362129;28;20008;-68
2022/06/07 08:44:07;;;;;;;;;;;;;;;-145.66;100.00;59599.19;10358458;28;20369;-68
2022/06/07 08:49:10;;;;;;;;;;;;;;;-145.66;100.00;59599.19;10358390;28;20327;-68
2022/06/07 08:54:17;;;;;;;;;;;;;;;-145.66;100.00;59599.19;10357273;28;19928;-68
2022/06/07 08:59:20;;;;;;;;;;;;;;;-145.66;100.00;59599.19;10355674;28;20368;-69
2022/06/07 09:04:26;;;;;;;;;;;;;;;-145.66;100.00;59599.19;10375001;28;19921;-69
2022/06/07 09:15:14;;;;;;;;;;;;;;;-145.66;100.00;59599.19;10360153;28;19932;-68
2022/06/07 09:20:22;;;;;;;;;;;;;;;-145.66;100.00;59599.19;10357569;28;19976;-68
2022/06/07 09:25:36;;;;;;;;;;;;;;;-145.66;100.00;59599.19;10358382;28;20004;-68
2022/06/07 09:30:40;;;;;;;;;;;;;;;-145.66;100.00;59599.19;10357235;28;20301;-68
2022/06/07 09:35:42;;;;;;;;;;;;;;;-145.66;100.00;59599.19;10356846;28;20419;-68
2022/06/07 09:40:54;;;;;;;;;;;;;;;-145.66;100.00;59599.19;10373307;28;19932;-68
2022/06/07 09:46:00;;;;;;;;;;;;;;;-145.66;100.00;59599.19;10377448;28;19928;-68
2022/06/07 09:51:16;;;;;;;;;;;;;;;-145.66;100.00;59599.19;10383361;28;19921;-68
2022/06/07 09:56:27;;;;;;;;;;;;;;;-145.66;100.00;59599.19;10364967;28;19922;-68
2022/06/07 10:01:32;;;;;;;;;;;;;;;-145.66;100.00;59599.19;10356872;28;19976;-67
2022/06/07 10:06:36;;;;;;;;;;;;;;;-145.66;100.00;59599.19;10382018;28;19972;-68
2022/06/07 10:11:51;;;;;;;;;;;;;;;-145.66;100.00;59599.19;10364280;28;19929;-68
2022/06/07 10:16:59;;;;;;;;;;;;;;;-145.66;100.00;59599.19;10382088;28;19921;-69
2022/06/07 10:22:07;;;;;;;;;;;;;;;-145.66;100.00;59599.19;10364553;28;19928;-71
2022/06/07 10:27:11;;;;;;;;;;;;;;;-145.66;100.00;59599.19;10381842;28;19928;-68
2022/06/07 10:32:13;;;;;;;;;;;;;;;-145.66;100.00;59599.19;10380972;28;19921;-69
2022/06/07 10:37:28;;;;;;;;;;;;;;;-145.66;100.00;59599.19;10381376;28;19922;-69
2022/06/07 10:42:36;;;;;;;;;;;;;;;-145.66;100.00;59599.19;10380593;28;19929;-69
2022/06/07 10:48:00;;;;;;;;;;;;;;;-145.66;100.00;59599.19;10377700;28;19927;-67
2022/06/07 10:53:11;;;;;;;;;;;;;;;-145.66;100.00;59599.19;10362773;28;20269;-69
2022/06/07 10:58:28;;;;;;;;;;;;;;;-145.66;100.00;59599.19;10347200;28;19922;-67
2022/06/07 11:03:50;;;;;;;;;;;;;;;-145.66;100.00;59599.19;10371034;28;19928;-69
2022/06/07 11:14:29;;;;;;;;;;;;;;;-145.66;100.00;59599.19;10355915;28;20296;-68
2022/06/07 11:19:31;;;;;;;;;;;;;;;-145.66;100.00;59599.19;10377477;28;19945;-68
2022/06/07 11:24:34;;;;;;;;;;;;;;;-145.66;100.00;59599.19;10378430;28;19928;-69
2022/06/07 11:29:37;;;;;;;;;;;;;;;-145.66;100.00;59599.19;10379399;28;19922;-68
2022/06/07 11:34:39;;;;;;;;;;;;;;;-145.66;100.00;59599.19;10348135;28;19922;-67
2022/06/07 11:39:41;;;;;;;;;;;;;;;-145.66;100.00;59599.19;10360544;28;19928;-68
2022/06/07 11:44:45;;;;;;;;;;;;;;;-145.66;100.00;59599.19;10378966;28;19961;-68
2022/06/07 11:49:50;;;;;;;;;;;;;;;-145.66;100.00;59599.19;10338690;28;19928;-68
2022/06/07 11:55:05;;;;;;;;;;;;;;;-145.66;100.00;59599.19;10338153;28;19928;-68
2022/06/07 12:00:28;;;;;;;;;;;;;;;-145.66;100.00;59599.19;10351614;28;19925;-68
2022/06/07 12:05:47;;;;;;;;;;;;;;;-145.66;100.00;59599.19;10376584;28;19921;-68
2022/06/07 12:11:03;;;;;;;;;;;;;;;-145.66;100.00;59599.19;10375965;28;19921;-72
2022/06/07 12:16:32;;;;;;;;;;;;;;;-145.66;100.00;59599.19;10376552;28;19927;-71
2022/06/07 12:21:42;;;;;;;;;;;;;;;-145.66;100.00;59599.19;10351764;28;19926;-71
2022/06/07 12:26:46;;;;;;;;;;;;;;;-145.66;100.00;59599.19;10376197;28;19925;-70
2022/06/07 12:31:50;;;;;;;;;;;;;;;-145.66;100.00;59599.19;10376426;28;20394;-69
2022/06/07 12:37:16;;;;;;;;;;;;;;;-145.66;100.00;59599.19;10374485;28;19948;-70
2022/06/07 12:42:19;;;;;;;;;;;;;;;-145.66;100.00;59599.19;10362664;28;20302;-70
2022/06/07 12:47:23;;;;;;;;;;;;;;;-145.66;100.00;59599.19;10375379;28;19921;-70
2022/06/07 12:52:26;;;;;;;;;;;;;;;-145.66;100.00;59599.19;10367719;28;20296;-70
2022/06/07 12:57:29;;;;;;;;;;;;;;;-145.66;100.00;59599.19;10367641;28;19922;-70
2022/06/07 13:02:45;;;;;;;;;;;;;;;-145.66;100.00;59599.19;10374589;28;20292;-70
2022/06/07 13:07:52;;;;;;;;;;;;;;;-145.66;100.00;59599.19;10373750;28;19960;-70
2022/06/07 13:12:55;;;;;;;;;;;;;;;-145.66;100.00;59599.19;10363748;28;19930;-70
2022/06/07 13:18:00;;;;;;;;;;;;;;;-145.66;100.00;59599.19;10368761;28;19925;-70
2022/06/07 13:23:17;;;;;;;;;;;;;;;-145.66;100.00;59599.19;10360339;28;20471;-70
2022/06/07 13:28:22;;;;;;;;;;;;;;;-145.66;100.00;59599.19;10366488;28;19933;-71
2022/06/07 13:33:32;;;;;;;;;;;;;;;-145.66;100.00;59599.19;10368327;28;20036;-70
2022/06/07 13:38:36;;;;;;;;;;;;;;;-145.66;100.00;59599.19;10368424;28;19932;-71
2022/06/07 13:43:50;;;;;;;;;;;;;;;-145.66;100.00;59599.19;10367868;28;19926;-70
2022/06/07 13:54:19;;;;;;;;;;;;;;;-145.66;100.00;59599.19;10367501;28;19968;-70
2022/06/07 13:59:21;;;;;;;;;;;;;;;-145.66;100.00;59599.19;10365909;28;19925;-70
2022/06/07 14:04:24;;;;;;;;;;;;;;;-145.66;100.00;59599.19;10366092;28;20277;-70
2022/06/07 14:09:28;;;;;;;;;;;;;;;-145.66;100.00;59599.19;10365693;28;19925;-70
2022/06/07 14:14:30;;;;;;;;;;;;;;;-145.66;100.00;59599.19;10391999;28;19925;-71
2022/06/07 14:19:36;;;;;;;;;;;;;;;-145.66;100.00;59599.19;10367140;28;19926;-71
2022/06/07 14:24:38;;;;;;;;;;;;;;;-145.66;100.00;59599.19;10367324;28;19933;-71
2022/06/07 14:29:42;;;;;;;;;;;;;;;-145.66;100.00;59599.19;10365795;28;19925;-71
2022/06/07 14:34:44;;;;;;;;;;;;;;;-145.66;100.00;59599.19;10355771;28;19925;-71
2022/06/07 14:39:47;;;;;;;;;;;;;;;-145.66;100.00;59599.19;10360028;28;19921;-71
2022/06/07 14:44:49;;;;;;;;;;;;;;;-145.66;100.00;59599.19;10363212;28;19929;-71
2022/06/07 14:49:52;;;;;;;;;;;;;;;-145.66;100.00;59599.19;10379359;28;19921;-71
2022/06/07 14:54:55;;;;;;;;;;;;;;;-145.66;100.00;59599.19;10376239;28;19933;-71
2022/06/07 14:59:57;;;;;;;;;;;;;;;-145.66;100.00;59599.19;10380065;28;19944;-70
2022/06/07 15:05:07;;;;;;;;;;;;;;;-145.66;100.00;59599.19;10378546;28;19929;-71
2022/06/07 15:10:13;;;;;;;;;;;;;;;-145.66;100.00;59599.19;10376697;28;19921;-72
2022/06/07 15:15:15;;;;;;;;;;;;;;;-145.66;100.00;59599.19;10361844;28;19925;-72
2022/06/07 15:20:21;;;;;;;;;;;;;;;-145.66;100.00;59599.19;10378754;28;19929;-71
2022/06/07 15:25:25;;;;;;;;;;;;;;;-145.66;100.00;59599.19;10375506;28;19929;-71
2022/06/07 15:30:27;;;;;;;;;;;;;;;-145.66;100.00;59599.19;10378332;28;19937;-71
2022/06/07 15:35:29;;;;;;;;;;;;;;;-145.66;100.00;59599.19;10377917;28;19964;-71
2022/06/07 15:40:32;;;;;;;;;;;;;;;-145.66;100.00;59599.19;10379110;28;20020;-70
2022/06/07 15:45:38;;;;;;;;;;;;;;;-145.66;100.00;59599.19;10377863;28;19921;-71
2022/06/07 15:50:42;;;;;;;;;;;;;;;-145.66;100.00;59599.19;10378757;28;19928;-71
2022/06/07 15:55:45;;;;;;;;;;;;;;;-145.66;100.00;59599.19;10376589;28;19925;-72
2022/06/07 16:00:47;;;;;;;;;;;;;;;-145.66;100.00;59599.19;10377163;28;19954;-71
2022/06/07 16:05:50;;;;;;;;;;;;;;;-145.66;100.00;59599.19;10376347;28;19921;-71
2022/06/07 16:10:52;;;;;;;;;;;;;;;-145.66;100.00;59599.19;10377803;28;19928;-72
2022/06/07 16:15:55;;;;;;;;;;;;;;;-145.66;100.00;59599.19;10376819;28;20280;-71
2022/06/07 16:20:58;;;;;;;;;;;;;;;-145.66;100.00;59599.19;10376489;28;19921;-72
2022/06/07 16:36:31;;;;;;;;;;;;;;;-145.66;100.00;59599.19;10369056;28;20017;-66
2022/06/07 16:41:36;;;;;;;;;;;;;;;-145.66;100.00;59599.19;10376188;28;19928;-66
2022/06/07 16:46:45;;;;;;;;;;;;;;;-145.66;100.00;59599.19;10376108;28;19921;-66
2022/06/07 16:51:48;;;;;;;;;;;;;;;-145.66;100.00;59599.19;10375343;28;19921;-66
2022/06/07 16:56:50;;;;;;;;;;;;;;;-145.66;100.00;59599.19;10374124;28;19921;-66
2022/06/07 17:01:53;;;;;;;;;;;;;;;-145.66;100.00;59599.19;10386718;28;19921;-66
2022/06/07 17:06:55;;;;;;;;;;;;;;;-145.66;100.00;59599.19;10404466;28;20407;-66
2022/06/07 17:11:57;;;;;;;;;;;;;;;-145.66;100.00;59599.19;10372089;28;19928;-66
2022/06/07 17:17:00;;;;;;;;;;;;;;;-145.66;100.00;59599.19;10374291;28;19921;-66
2022/06/07 17:22:04;;;;;;;;;;;;;;;-145.66;100.00;59599.19;10373815;28;19948;-66
2022/06/07 17:27:06;;;;;;;;;;;;;;;-145.66;100.00;59599.19;10382392;28;19921;-66
2022/06/07 17:32:08;;;;;;;;;;;;;;;-145.66;100.00;59599.19;10421995;28;19928;-66
2022/06/07 17:37:10;;;;;;;;;;;;;;;-145.66;100.00;59599.19;10415000;28;19921;-66
2022/06/07 17:42:13;;;;;;;;;;;;;;;-145.66;100.00;59599.19;10420909;28;19928;-66
2022/06/07 17:47:15;;;;;;;;;;;;;;;-145.66;100.00;59599.19;10414811;28;19925;-66
2022/06/07 17:52:37;;;;;;;;;;;;;;;-145.66;100.00;59599.19;10414410;28;19921;-66
2022/06/07 17:57:39;;;;;;;;;;;;;;;-145.66;100.00;59599.19;10414659;28;19921;-66
2022/06/07 18:02:45;;;;;;;;;;;;;;;-145.66;100.00;59599.19;10414047;28;19928;-66
2022/06/07 18:07:49;;;;;;;;;;;;;;;-145.66;100.00;59599.19;10418532;28;20253;-66
2022/06/07 18:12:51;;;;;;;;;;;;;;;-145.66;100.00;59599.19;10422577;28;20450;-66
2022/06/07 18:17:54;;;;;;;;;;;;;;;-145.66;100.00;59599.19;10405544;28;19928;-66
2022/06/07 18:22:56;;;;;;;;;;;;;;;-145.66;100.00;59599.19;10422976;28;19924;-66
2022/06/07 18:27:58;;;;;;;;;;;;;;;-145.66;100.00;59599.19;10421870;28;20265;-66
2022/06/07 18:33:01;;;;;;;;;;;;;;;-145.66;100.00;59599.19;10404160;28;20284;-66
2022/06/07 18:38:03;;;;;;;;;;;;;;;-145.66;100.00;59599.19;10404222;28;19921;-67
2022/06/07 18:43:05;;;;;;;;;;;;;;;-145.66;100.00;59599.19;10422136;28;19925;-68
2022/06/07 18:48:08;;;;;;;;;;;;;;;-145.66;100.00;59599.19;10422543;28;19921;-68
2022/06/07 18:53:21;;;;;;;;;;;;;;;-145.66;100.00;59599.19;10403667;28;19921;-68
2022/06/07 18:58:23;;;;;;;;;;;;;;;-145.66;100.00;59599.19;10403541;28;20362;-68
2022/06/07 19:03:25;;;;;;;;;;;;;;;-145.66;100.00;59599.19;10421358;28;19932;-66
2022/06/07 19:08:28;;;;;;;;;;;;;;;-145.66;100.00;59599.19;10421097;28;19921;-66
2022/06/07 19:13:30;;;;;;;;;;;;;;;-145.66;100.00;59599.19;10421004;28;19928;-66
2022/06/07 19:18:32;;;;;;;;;;;;;;;-145.66;100.00;59599.19;10419852;28;20439;-67
2022/06/07 19:23:35;;;;;;;;;;;;;;;-145.66;100.00;59599.19;10420578;28;19921;-67
2022/06/07 19:28:37;;;;;;;;;;;;;;;-145.66;100.00;59599.19;10402293;28;19921;-67
2022/06/07 19:33:40;;;;;;;;;;;;;;;-145.66;100.00;59599.19;10402579;28;19925;-68
2022/06/07 19:38:42;;;;;;;;;;;;;;;-145.66;100.00;59599.19;10402591;28;19928;-67
2022/06/07 19:43:45;;;;;;;;;;;;;;;-145.66;100.00;59599.19;10419801;28;19928;-67
2022/06/07 19:48:50;;;;;;;;;;;;;;;-145.66;100.00;59599.19;10419658;28;19929;-67
2022/06/07 19:53:54;;;;;;;;;;;;;;;-145.66;100.00;59599.19;10401487;28;20387;-68
2022/06/07 19:58:56;;;;;;;;;;;;;;;-145.66;100.00;59599.19;10401757;28;19925;-67
2022/06/07 20:03:58;;;;;;;;;;;;;;;-145.66;100.00;59599.19;10400792;28;20288;-67
2022/06/07 20:09:01;;;;;;;;;;;;;;;-145.66;100.00;59599.19;10400626;28;19921;-67
2022/06/07 20:14:03;;;;;;;;;;;;;;;-145.66;100.00;59599.19;10401088;28;19921;-67
2022/06/07 20:19:06;;;;;;;;;;;;;;;-145.66;100.00;59599.19;10417774;28;19920;-67
2022/06/07 20:24:09;;;;;;;;;;;;;;;-145.66;100.00;59599.19;10418201;28;19921;-67
2022/06/07 20:29:12;;;;;;;;;;;;;;;-145.66;100.00;59599.19;10414841;28;20280;-67
2022/06/07 20:34:14;;;;;;;;;;;;;;;-145.66;100.00;59599.19;10409303;28;19928;-67
2022/06/07 20:39:17;;;;;;;;;;;;;;;-145.66;100.00;59599.19;10410739;28;19928;-67
2022/06/07 20:44:20;;;;;;;;;;;;;;;-145.66;100.00;59599.19;10409768;28;20291;-67
2022/06/07 20:49:22;;;;;;;;;;;;;;;-145.66;100.00;59599.19;10409654;28;20386;-67
2022/06/07 20:54:24;;;;;;;;;;;;;;;-145.66;100.00;59599.19;10409493;28;20320;-67
2022/06/07 20:59:28;;;;;;;;;;;;;;;-145.66;100.00;59599.19;10392167;28;20290;-67
2022/06/07 21:04:31;;;;;;;;;;;;;;;-145.66;100.00;59599.19;10408457;28;20016;-67
2022/06/07 21:09:33;;;;;;;;;;;;;;;-145.66;100.00;59599.19;10407929;28;19975;-67
2022/06/07 21:14:35;;;;;;;;;;;;;;;-145.66;100.00;59599.19;10407874;28;20339;-67
2022/06/07 21:19:38;;;;;;;;;;;;;;;-145.66;100.00;59599.19;10414620;28;19928;-67
2022/06/07 21:24:40;;;;;;;;;;;;;;;-145.66;100.00;59599.19;10414905;28;19921;-67
2022/06/07 21:29:43;;;;;;;;;;;;;;;-145.66;100.00;59599.19;10415507;28;19921;-67
2022/06/07 21:34:45;;;;;;;;;;;;;;;-145.66;100.00;59599.19;10415656;28;19936;-67
2022/06/07 21:39:47;;;;;;;;;;;;;;;-145.66;100.00;59599.19;10416386;28;19921;-68
2022/06/07 21:44:49;;;;;;;;;;;;;;;-145.66;100.00;59599.19;10423682;28;19921;-67
2022/06/07 21:49:51;;;;;;;;;;;;;;;-145.66;100.00;59599.19;10424214;28;19921;-67
2022/06/07 21:54:56;;;;;;;;;;;;;;;-145.66;100.00;59599.19;10423862;28;19921;-68
2022/06/07 21:59:58;;;;;;;;;;;;;;;-145.66;100.00;59599.19;10423064;28;19928;-67
2022/06/07 22:05:00;;;;;;;;;;;;;;;-145.66;100.00;59599.19;10422917;28;19929;-68
2022/06/07 22:10:04;;;;;;;;;;;;;;;-145.66;100.00;59599.19;10422778;28;20291;-67
2022/06/07 22:15:07;;;;;;;;;;;;;;;-145.66;100.00;59599.19;10421982;28;19931;-67
2022/06/07 22:20:09;;;;;;;;;;;;;;;-145.66;100.00;59599.19;10405404;28;19927;-67
2022/06/07 22:25:12;;;;;;;;;;;;;;;-145.66;100.00;59599.19;10422815;28;19921;-68
2022/06/07 22:30:16;;;;;;;;;;;;;;;-145.66;100.00;59599.19;10420608;28;20360;-67
2022/06/07 22:35:19;;;;;;;;;;;;;;;-145.66;100.00;59599.19;10422300;28;19921;-68
2022/06/07 22:40:21;;;;;;;;;;;;;;;-145.66;100.00;59599.19;10421091;28;19921;-68
2022/06/07 22:45:25;;;;;;;;;;;;;;;-145.66;100.00;59599.19;10421390;28;20281;-67
2022/06/07 22:50:29;;;;;;;;;;;;;;;-145.66;100.00;59599.19;10421203;28;20371;-68
2022/06/07 22:55:33;;;;;;;;;;;;;;;-145.66;100.00;59599.19;10419088;28;19936;-67
2022/06/07 23:00:35;;;;;;;;;;;;;;;-145.66;100.00;59599.19;10419824;28;19921;-68
2022/06/07 23:05:37;;;;;;;;;;;;;;;-145.66;100.00;59599.19;10420107;28;19932;-68
2022/06/07 23:10:39;;;;;;;;;;;;;;;-145.66;100.00;59599.19;10421045;28;19928;-67
2022/06/07 23:21:03;;;;;;;;;;;;;;;-145.66;100.00;59599.19;10420185;28;20300;-68
2022/06/07 23:26:05;;;;;;;;;;;;;;;-145.66;100.00;59599.19;10420515;28;19921;-68
2022/06/07 23:31:08;;;;;;;;;;;;;;;-145.66;100.00;59599.19;10419601;28;19932;-68
2022/06/07 23:36:10;;;;;;;;;;;;;;;-145.66;100.00;59599.19;10418893;28;20367;-68
2022/06/07 23:41:12;;;;;;;;;;;;;;;-145.66;100.00;59599.19;10419287;28;20276;-68
2022/06/07 23:46:15;;;;;;;;;;;;;;;-145.66;100.00;59599.19;10419763;28;19921;-68
2022/06/07 23:51:18;;;;;;;;;;;;;;;-145.66;100.00;59599.19;10401382;28;20327;-68
2022/06/07 23:56:20;;;;;;;;;;;;;;;-145.66;100.00;59599.19;10419261;28;19921;-68
